Time;durP1;ratioP1;P1;durP2;ratioP2;P2;SDS_P1;SDS_P2;PMS_P1;PMS_P2;Temp;Humidity;BMP_temperature;BMP_pressure;BME280_temperature;BME280_humidity;BME280_pressure;Samples;Min_cycle;Max_cycle;Signal;HPM_P1;HPM_P2
2021/07/09 00:01:53;;;;;;;5.70;4.90;;;20.90;99.90;;;;;;5064994;28;20515;-64
2021/07/09 00:04:20;;;;;;;5.00;4.60;;;20.90;99.90;;;;;;5059390;28;20466;-64
2021/07/09 00:06:47;;;;;;;6.63;4.87;;;20.90;99.90;;;;;;5072436;28;20470;-64
2021/07/09 00:09:16;;;;;;;5.20;4.70;;;20.90;99.90;;;;;;5072476;28;20479;-64
2021/07/09 00:11:45;;;;;;;5.20;4.80;;;20.90;99.90;;;;;;5072634;28;20524;-64
2021/07/09 00:14:16;;;;;;;4.37;3.97;;;20.90;99.90;;;;;;5072110;28;20866;-64
2021/07/09 00:16:44;;;;;;;5.07;3.80;;;20.90;99.90;;;;;;5072490;28;20473;-64
2021/07/09 00:19:12;;;;;;;4.00;3.70;;;20.90;99.90;;;;;;5071388;28;20491;-65
2021/07/09 00:21:39;;;;;;;4.70;4.07;;;20.90;99.90;;;;;;5072421;28;20481;-64
2021/07/09 00:24:07;;;;;;;3.70;3.40;;;20.90;99.90;;;;;;5071817;28;20470;-65
2021/07/09 00:26:36;;;;;;;4.90;4.60;;;20.90;99.90;;;;;;5072499;28;20470;-65
2021/07/09 00:29:04;;;;;;;3.87;3.33;;;20.90;99.90;;;;;;5067392;28;20475;-65
2021/07/09 00:31:32;;;;;;;4.23;3.93;;;21.00;99.90;;;;;;5072350;28;20848;-64
2021/07/09 00:34:00;;;;;;;3.73;3.43;;;20.90;99.90;;;;;;5071524;28;20546;-64
2021/07/09 00:36:28;;;;;;;4.60;4.30;;;20.90;99.90;;;;;;5072276;28;20463;-64
2021/07/09 00:38:55;;;;;;;4.40;4.00;;;20.90;99.90;;;;;;5071640;28;20527;-64
2021/07/09 00:41:22;;;;;;;3.80;3.50;;;21.00;99.90;;;;;;5072349;28;20583;-64
2021/07/09 00:43:51;;;;;;;4.00;3.70;;;21.00;99.90;;;;;;5072168;28;20466;-64
2021/07/09 00:46:33;;;;;;;4.43;4.13;;;21.00;99.90;;;;;;5072011;28;20472;-64
2021/07/09 00:49:00;;;;;;;4.80;4.50;;;20.90;99.90;;;;;;5064545;28;20485;-64
2021/07/09 00:51:27;;;;;;;4.83;4.43;;;20.90;99.90;;;;;;5075504;28;20470;-64
2021/07/09 00:53:54;;;;;;;4.60;3.73;;;20.90;99.90;;;;;;5075968;28;20968;-64
2021/07/09 00:56:22;;;;;;;4.63;3.80;;;20.90;99.90;;;;;;5076371;28;20948;-64
2021/07/09 00:58:51;;;;;;;4.13;3.83;;;20.90;99.90;;;;;;5076108;28;20474;-65
2021/07/09 01:01:18;;;;;;;4.53;4.20;;;20.90;99.90;;;;;;5075655;28;20491;-64
2021/07/09 01:03:45;;;;;;;4.07;3.70;;;20.90;99.90;;;;;;5076422;28;20481;-64
2021/07/09 01:06:13;;;;;;;4.53;4.23;;;20.90;99.90;;;;;;5075638;28;20490;-65
2021/07/09 01:08:40;;;;;;;4.03;3.73;;;20.90;99.90;;;;;;5076117;28;20549;-64
2021/07/09 01:11:07;;;;;;;5.30;4.73;;;20.90;99.90;;;;;;5075541;28;20520;-64
2021/07/09 01:13:34;;;;;;;4.80;4.50;;;20.90;99.90;;;;;;5075873;28;20470;-64
2021/07/09 01:16:03;;;;;;;12.43;5.33;;;20.90;99.90;;;;;;5075421;28;20472;-64
2021/07/09 01:18:31;;;;;;;4.93;4.10;;;20.90;99.90;;;;;;5075765;28;20471;-64
2021/07/09 01:20:58;;;;;;;5.43;4.77;;;20.80;99.90;;;;;;5070647;28;20470;-64
2021/07/09 01:23:28;;;;;;;5.07;4.20;;;20.80;99.90;;;;;;5068493;28;20968;-64
2021/07/09 01:25:57;;;;;;;4.33;4.07;;;20.80;99.90;;;;;;5075858;28;20808;-64
2021/07/09 01:28:24;;;;;;;4.80;4.40;;;20.80;99.90;;;;;;5072127;28;21138;-64
2021/07/09 01:30:51;;;;;;;4.27;3.93;;;20.80;99.90;;;;;;5074571;28;20967;-64
2021/07/09 01:33:18;;;;;;;4.90;4.50;;;20.80;99.90;;;;;;5075211;28;20466;-64
2021/07/09 01:35:52;;;;;;;4.40;4.00;;;20.80;99.90;;;;;;5075453;28;20835;-64
2021/07/09 01:38:19;;;;;;;4.60;4.23;;;20.80;99.90;;;;;;5074724;28;21010;-64
2021/07/09 01:40:46;;;;;;;5.87;4.23;;;20.80;99.90;;;;;;5075370;28;20528;-64
2021/07/09 01:43:14;;;;;;;5.30;4.90;;;20.80;99.90;;;;;;5074675;28;20470;-64
2021/07/09 01:45:41;;;;;;;4.80;4.33;;;20.80;99.90;;;;;;5075410;28;20466;-64
2021/07/09 01:48:08;;;;;;;5.53;5.00;;;20.80;99.90;;;;;;5074985;28;20935;-64
2021/07/09 01:50:36;;;;;;;4.37;4.07;;;20.80;99.90;;;;;;5065424;28;20469;-63
2021/07/09 01:53:03;;;;;;;5.37;4.87;;;20.80;99.90;;;;;;5074637;28;20458;-64
2021/07/09 01:55:30;;;;;;;4.93;4.63;;;20.80;99.90;;;;;;5075137;28;20474;-64
2021/07/09 01:57:57;;;;;;;4.70;4.40;;;20.80;99.90;;;;;;5065698;28;20475;-64
2021/07/09 02:00:27;;;;;;;4.67;3.93;;;20.80;99.90;;;;;;5074528;28;20462;-64
2021/07/09 02:02:54;;;;;;;4.37;4.07;;;20.80;99.90;;;;;;5073861;28;20474;-64
2021/07/09 02:05:24;;;;;;;4.77;4.30;;;20.80;99.90;;;;;;5074670;28;20470;-64
2021/07/09 02:07:54;;;;;;;5.00;4.30;;;20.80;99.90;;;;;;5074782;28;20485;-64
2021/07/09 02:10:22;;;;;;;4.37;4.07;;;20.80;99.90;;;;;;5074454;28;20535;-64
2021/07/09 02:12:52;;;;;;;5.20;4.80;;;20.80;99.90;;;;;;5074593;28;20466;-64
2021/07/09 02:15:19;;;;;;;6.90;6.30;;;20.90;99.90;;;;;;5074500;28;20558;-64
2021/07/09 02:17:48;;;;;;;9.53;7.80;;;20.80;99.90;;;;;;5071209;28;20968;-64
2021/07/09 02:20:17;;;;;;;8.10;7.30;;;20.80;99.90;;;;;;5071721;28;20466;-64
2021/07/09 02:22:44;;;;;;;5.40;4.90;;;20.80;99.90;;;;;;5071813;28;20470;-63
2021/07/09 02:25:12;;;;;;;4.93;4.50;;;20.80;99.90;;;;;;5072069;28;20474;-64
2021/07/09 02:27:41;;;;;;;5.70;4.27;;;20.80;99.90;;;;;;5071811;28;20964;-64
2021/07/09 02:30:10;;;;;;;5.27;4.77;;;20.80;99.90;;;;;;5071808;28;20489;-65
2021/07/09 02:32:37;;;;;;;4.97;4.57;;;20.80;99.90;;;;;;5071697;28;20524;-64
2021/07/09 02:35:07;;;;;;;5.70;5.30;;;20.80;99.90;;;;;;5071995;28;20466;-63
2021/07/09 02:37:34;;;;;;;4.20;3.90;;;20.80;99.90;;;;;;5071678;28;20473;-63
2021/07/09 02:40:02;;;;;;;4.47;4.17;;;20.80;99.90;;;;;;5072216;28;20482;-63
2021/07/09 02:42:29;;;;;;;5.07;4.67;;;20.80;99.90;;;;;;5070407;28;20462;-63
2021/07/09 02:44:56;;;;;;;4.63;4.30;;;20.80;99.90;;;;;;5073374;28;20523;-64
2021/07/09 02:47:22;;;;;;;6.03;4.13;;;20.80;99.90;;;;;;5073847;28;20823;-63
2021/07/09 02:49:52;;;;;;;4.63;4.20;;;20.80;99.90;;;;;;5073865;28;20515;-64
2021/07/09 02:52:20;;;;;;;4.40;4.00;;;20.80;99.90;;;;;;5073761;28;20473;-64
2021/07/09 02:54:47;;;;;;;4.20;3.87;;;20.80;99.90;;;;;;5074657;28;20466;-64
2021/07/09 02:57:14;;;;;;;8.60;4.27;;;20.80;99.90;;;;;;5073505;28;20972;-63
2021/07/09 02:59:41;;;;;;;3.87;3.67;;;20.80;99.90;;;;;;5073890;28;20477;-64
2021/07/09 03:02:08;;;;;;;4.23;3.93;;;20.80;99.90;;;;;;5073718;28;20854;-63
2021/07/09 03:04:35;;;;;;;5.20;4.80;;;20.80;99.90;;;;;;5073891;28;20462;-64
2021/07/09 03:07:02;;;;;;;5.20;4.33;;;20.80;99.90;;;;;;5073991;28;20478;-63
2021/07/09 03:09:30;;;;;;;6.60;6.00;;;20.80;99.90;;;;;;5073355;28;20470;-63
2021/07/09 03:11:57;;;;;;;5.30;4.90;;;20.80;99.90;;;;;;5073844;28;20965;-63
2021/07/09 03:14:24;;;;;;;6.90;6.20;;;20.80;99.90;;;;;;5072892;28;20485;-64
2021/07/09 03:16:51;;;;;;;4.83;4.43;;;20.80;99.90;;;;;;5073766;28;20479;-64
2021/07/09 03:19:19;;;;;;;3.70;3.40;;;20.80;99.90;;;;;;5072641;28;20471;-63
2021/07/09 03:21:45;;;;;;;3.60;3.40;;;20.80;99.90;;;;;;5063467;28;20467;-63
2021/07/09 03:24:12;;;;;;;3.37;3.17;;;20.80;99.90;;;;;;5051835;28;20463;-64
2021/07/09 03:26:41;;;;;;;4.63;4.20;;;20.80;99.90;;;;;;5057272;28;20488;-63
2021/07/09 03:29:07;;;;;;;3.73;3.43;;;20.80;99.90;;;;;;5073212;28;20831;-63
2021/07/09 03:31:34;;;;;;;4.93;4.53;;;20.80;99.90;;;;;;5073696;28;20465;-63
2021/07/09 03:34:02;;;;;;;6.07;4.57;;;20.80;99.90;;;;;;5069206;28;20504;-63
2021/07/09 03:36:29;;;;;;;4.33;4.03;;;20.80;99.90;;;;;;5071710;28;20512;-63
2021/07/09 03:38:57;;;;;;;4.00;3.70;;;20.80;99.90;;;;;;5071369;28;20520;-63
2021/07/09 03:41:26;;;;;;;4.57;4.17;;;20.80;99.90;;;;;;5071132;28;20462;-63
2021/07/09 03:43:54;;;;;;;4.60;4.30;;;20.80;99.90;;;;;;5071745;28;21220;-63
2021/07/09 03:46:21;;;;;;;4.83;4.17;;;20.80;99.90;;;;;;5071275;28;20500;-63
2021/07/09 03:48:49;;;;;;;4.70;3.23;;;20.80;99.90;;;;;;5071202;28;20458;-64
2021/07/09 03:51:15;;;;;;;4.50;4.20;;;20.80;99.90;;;;;;5072874;28;20474;-64
2021/07/09 03:53:42;;;;;;;3.57;3.37;;;20.80;99.90;;;;;;5073225;28;20846;-64
2021/07/09 03:56:09;;;;;;;4.33;4.03;;;20.80;99.90;;;;;;5072529;28;20479;-64
2021/07/09 03:58:36;;;;;;;4.63;4.20;;;20.80;99.90;;;;;;5073105;28;20482;-64
2021/07/09 04:01:05;;;;;;;5.53;5.10;;;20.80;99.90;;;;;;5073034;28;20858;-64
2021/07/09 04:03:32;;;;;;;4.93;4.47;;;20.80;99.90;;;;;;5072598;28;20458;-64
2021/07/09 04:05:59;;;;;;;5.93;4.80;;;20.80;99.90;;;;;;5073032;28;20478;-64
2021/07/09 04:08:26;;;;;;;4.47;4.17;;;20.80;99.90;;;;;;5072627;28;20539;-64
2021/07/09 04:10:53;;;;;;;5.77;5.30;;;20.70;99.90;;;;;;5072977;28;20524;-64
2021/07/09 04:13:20;;;;;;;4.50;4.20;;;20.80;99.90;;;;;;5072742;28;20462;-63
2021/07/09 04:15:46;;;;;;;4.80;4.40;;;20.70;99.90;;;;;;5073096;28;20797;-64
2021/07/09 04:18:15;;;;;;;4.83;4.53;;;20.70;99.90;;;;;;5072241;28;20470;-64
2021/07/09 04:20:42;;;;;;;4.87;4.47;;;20.70;99.90;;;;;;5072744;28;20466;-65
2021/07/09 04:23:09;;;;;;;5.27;4.87;;;20.70;99.90;;;;;;5072538;28;20470;-64
2021/07/09 04:25:36;;;;;;;4.93;4.40;;;20.70;99.90;;;;;;5071734;28;20523;-64
2021/07/09 04:28:04;;;;;;;6.30;5.50;;;20.60;99.90;;;;;;5059453;28;20471;-64
2021/07/09 04:30:31;;;;;;;6.43;5.80;;;20.60;99.90;;;;;;5072238;28;20527;-64
2021/07/09 04:32:58;;;;;;;5.57;5.10;;;20.60;99.90;;;;;;5068476;28;20539;-64
2021/07/09 04:35:26;;;;;;;6.43;5.80;;;20.60;99.90;;;;;;5072265;28;20466;-64
2021/07/09 04:37:53;;;;;;;6.17;4.97;;;20.50;99.90;;;;;;5072491;28;20473;-64
2021/07/09 04:40:20;;;;;;;6.10;5.60;;;20.50;99.90;;;;;;5072378;28;20466;-64
2021/07/09 04:42:47;;;;;;;5.40;5.00;;;20.50;99.90;;;;;;5072576;28;20474;-64
2021/07/09 04:45:14;;;;;;;6.20;5.60;;;20.50;99.90;;;;;;5072116;28;20543;-64
2021/07/09 04:47:42;;;;;;;5.03;4.37;;;20.50;99.90;;;;;;5072617;28;20459;-64
2021/07/09 04:50:10;;;;;;;5.47;5.13;;;20.50;99.90;;;;;;5072544;28;20963;-64
2021/07/09 04:52:38;;;;;;;6.20;5.70;;;20.50;99.90;;;;;;5072028;28;20527;-64
2021/07/09 04:55:07;;;;;;;6.10;5.50;;;20.50;99.90;;;;;;5072629;28;20850;-64
2021/07/09 04:57:35;;;;;;;6.37;5.70;;;20.50;99.90;;;;;;5072123;28;20557;-64
2021/07/09 05:00:02;;;;;;;5.90;5.33;;;20.50;99.90;;;;;;5072339;28;20463;-64
2021/07/09 05:02:29;;;;;;;5.87;5.33;;;20.40;99.90;;;;;;5072092;28;20470;-64
2021/07/09 05:04:55;;;;;;;6.13;5.63;;;20.40;99.90;;;;;;5072456;28;20470;-64
2021/07/09 05:07:22;;;;;;;6.60;6.00;;;20.40;99.90;;;;;;5071790;28;20532;-64
2021/07/09 05:09:50;;;;;;;6.73;6.23;;;20.40;99.90;;;;;;5072621;28;20964;-64
2021/07/09 05:12:20;;;;;;;6.53;6.03;;;20.40;99.90;;;;;;5071904;28;20508;-64
2021/07/09 05:14:47;;;;;;;8.00;7.30;;;20.40;99.90;;;;;;5072312;28;20461;-64
2021/07/09 05:17:14;;;;;;;6.90;6.40;;;20.30;99.90;;;;;;5072204;28;20581;-64
2021/07/09 05:19:41;;;;;;;5.93;5.43;;;20.30;99.90;;;;;;5071562;28;20455;-64
2021/07/09 05:22:10;;;;;;;6.40;5.80;;;20.30;99.90;;;;;;5072239;28;20470;-63
2021/07/09 05:24:37;;;;;;;7.47;6.87;;;20.30;99.90;;;;;;5071967;28;20520;-64
2021/07/09 05:27:07;;;;;;;6.80;6.30;;;20.30;99.90;;;;;;5064301;28;20471;-63
2021/07/09 05:29:34;;;;;;;7.57;6.97;;;20.30;99.90;;;;;;5066655;28;20473;-64
2021/07/09 05:32:01;;;;;;;7.00;6.33;;;20.30;99.90;;;;;;5070662;28;20462;-64
2021/07/09 05:34:28;;;;;;;7.57;6.90;;;20.30;99.90;;;;;;5069374;28;20467;-64
2021/07/09 05:36:55;;;;;;;6.37;5.97;;;20.30;99.90;;;;;;5074204;28;20470;-64
2021/07/09 05:39:22;;;;;;;7.60;6.90;;;20.30;99.90;;;;;;5075259;28;20474;-64
2021/07/09 05:41:49;;;;;;;7.60;7.00;;;20.30;99.90;;;;;;5075729;28;20487;-64
2021/07/09 05:44:17;;;;;;;7.33;6.70;;;20.30;99.90;;;;;;5075759;28;20470;-64
2021/07/09 05:46:44;;;;;;;7.67;6.97;;;20.30;99.90;;;;;;5075407;28;20462;-64
2021/07/09 05:49:11;;;;;;;7.70;7.00;;;20.30;99.90;;;;;;5075524;28;20975;-64
2021/07/09 05:51:38;;;;;;;7.90;7.40;;;20.30;99.90;;;;;;5075161;28;20478;-64
2021/07/09 05:54:04;;;;;;;7.10;6.63;;;20.30;99.90;;;;;;5075589;28;20524;-64
2021/07/09 05:56:32;;;;;;;6.87;6.40;;;20.30;99.90;;;;;;5075051;28;21010;-64
2021/07/09 05:58:58;;;;;;;6.87;6.40;;;20.30;99.90;;;;;;5075204;28;20504;-64
2021/07/09 06:01:27;;;;;;;7.47;6.37;;;20.30;99.90;;;;;;5074928;28;20470;-64
2021/07/09 06:03:53;;;;;;;9.30;8.10;;;20.40;99.90;;;;;;5075363;28;20461;-64
2021/07/09 06:06:20;;;;;;;6.97;6.50;;;20.40;99.90;;;;;;5074937;28;21014;-64
2021/07/09 06:08:47;;;;;;;7.10;6.57;;;20.50;99.90;;;;;;5075218;28;20476;-64
2021/07/09 06:11:15;;;;;;;7.70;7.10;;;20.50;99.90;;;;;;5075098;28;20474;-64
2021/07/09 06:13:46;;;;;;;7.57;7.00;;;20.50;99.90;;;;;;5074886;28;20462;-64
2021/07/09 06:16:13;;;;;;;7.60;7.03;;;20.60;99.90;;;;;;5075070;28;20475;-65
2021/07/09 06:18:41;;;;;;;8.60;7.80;;;20.60;99.90;;;;;;5074299;28;21038;-64
2021/07/09 06:21:08;;;;;;;8.63;8.03;;;20.60;99.90;;;;;;5074945;28;20524;-64
2021/07/09 06:23:35;;;;;;;9.67;8.97;;;20.60;99.90;;;;;;5074796;28;20898;-64
2021/07/09 06:26:02;;;;;;;7.60;7.07;;;20.60;99.90;;;;;;5074863;28;20466;-64
2021/07/09 06:28:29;;;;;;;7.53;6.93;;;20.70;99.90;;;;;;5061179;28;20466;-64
2021/07/09 06:30:56;;;;;;;8.53;7.87;;;20.70;99.90;;;;;;5075216;28;20512;-64
2021/07/09 06:33:22;;;;;;;7.83;7.23;;;20.70;99.90;;;;;;5070347;28;20470;-64
2021/07/09 06:35:51;;;;;;;8.03;7.50;;;20.70;99.90;;;;;;5074720;28;20955;-64
2021/07/09 06:38:18;;;;;;;9.23;8.53;;;20.70;99.90;;;;;;5074658;28;20479;-64
2021/07/09 06:40:45;;;;;;;9.20;8.50;;;20.70;99.90;;;;;;5074327;28;20466;-64
2021/07/09 06:43:13;;;;;;;8.43;7.83;;;20.70;99.90;;;;;;5074488;28;20477;-64
2021/07/09 06:45:40;;;;;;;8.57;7.97;;;20.70;99.90;;;;;;5074062;28;20474;-64
2021/07/09 06:48:07;;;;;;;8.23;7.63;;;20.80;99.90;;;;;;5073689;28;20493;-64
2021/07/09 06:50:35;;;;;;;8.60;8.00;;;20.80;99.90;;;;;;5073996;28;20470;-64
2021/07/09 06:53:05;;;;;;;9.13;8.33;;;20.80;99.90;;;;;;5073782;28;20520;-64
2021/07/09 06:55:32;;;;;;;8.10;7.50;;;20.80;99.90;;;;;;5073100;28;20470;-64
2021/07/09 06:57:59;;;;;;;9.53;8.90;;;20.80;99.90;;;;;;5074171;28;20475;-64
2021/07/09 07:00:26;;;;;;;10.67;9.77;;;20.80;99.90;;;;;;5073529;28;20474;-63
2021/07/09 07:02:53;;;;;;;9.27;8.57;;;20.80;99.90;;;;;;5074426;28;20469;-64
2021/07/09 07:05:20;;;;;;;9.10;8.40;;;20.80;99.90;;;;;;5073951;28;20498;-64
2021/07/09 07:07:47;;;;;;;9.43;8.73;;;20.90;99.90;;;;;;5073652;28;20485;-64
2021/07/09 07:10:16;;;;;;;11.50;10.50;;;20.90;99.90;;;;;;5074316;28;20478;-64
2021/07/09 07:12:45;;;;;;;9.57;8.80;;;20.90;99.90;;;;;;5073394;28;20478;-64
2021/07/09 07:15:13;;;;;;;11.00;10.10;;;20.90;99.90;;;;;;5073985;28;20481;-64
2021/07/09 07:17:40;;;;;;;10.83;10.03;;;21.00;99.90;;;;;;5073581;28;20478;-64
2021/07/09 07:20:08;;;;;;;10.27;9.57;;;21.00;99.90;;;;;;5073775;28;20466;-64
2021/07/09 07:22:35;;;;;;;10.13;9.33;;;21.00;99.90;;;;;;5073264;28;20524;-64
2021/07/09 07:25:02;;;;;;;10.70;10.00;;;21.00;99.90;;;;;;5073717;28;20473;-64
2021/07/09 07:27:30;;;;;;;9.90;9.20;;;21.00;99.90;;;;;;5073222;28;20547;-64
2021/07/09 07:29:58;;;;;;;9.20;8.53;;;21.00;99.90;;;;;;5073540;28;20473;-63
2021/07/09 07:32:25;;;;;;;12.13;11.23;;;21.00;99.90;;;;;;5069430;28;20463;-64
2021/07/09 07:34:52;;;;;;;12.30;11.13;;;21.00;99.90;;;;;;5073088;28;21290;-64
2021/07/09 07:37:19;;;;;;;11.63;10.73;;;21.10;99.90;;;;;;5073655;28;20462;-64
2021/07/09 07:39:46;;;;;;;10.53;9.67;;;21.10;99.90;;;;;;5073278;28;20470;-64
2021/07/09 07:42:13;;;;;;;11.70;10.80;;;21.10;99.90;;;;;;5073575;28;20855;-63
2021/07/09 07:44:41;;;;;;;11.50;10.50;;;21.10;99.90;;;;;;5073112;28;20474;-64
2021/07/09 07:47:08;;;;;;;12.43;11.30;;;21.10;99.90;;;;;;5073490;28;20961;-64
2021/07/09 07:49:35;;;;;;;15.23;13.70;;;21.10;99.90;;;;;;5072666;28;20501;-64
2021/07/09 07:52:02;;;;;;;14.13;12.93;;;21.10;99.90;;;;;;5073321;28;20462;-64
2021/07/09 07:54:30;;;;;;;12.27;11.47;;;21.10;99.90;;;;;;5072818;28;20475;-63
2021/07/09 07:56:57;;;;;;;13.00;12.00;;;21.20;99.90;;;;;;5073393;28;20533;-64
2021/07/09 07:59:24;;;;;;;15.47;14.37;;;21.20;99.90;;;;;;5073133;28;20477;-64
2021/07/09 08:01:52;;;;;;;13.93;12.63;;;21.20;99.90;;;;;;5072564;28;20469;-64
2021/07/09 08:04:19;;;;;;;15.30;14.20;;;21.20;99.90;;;;;;5057073;28;20467;-64
2021/07/09 08:06:46;;;;;;;14.57;12.30;;;21.20;99.90;;;;;;5052750;28;20467;-64
2021/07/09 08:09:13;;;;;;;14.20;13.10;;;21.30;99.90;;;;;;5052912;28;20478;-64
2021/07/09 08:11:40;;;;;;;13.00;12.00;;;21.30;99.90;;;;;;5052299;28;20475;-64
2021/07/09 08:14:07;;;;;;;14.67;13.40;;;21.30;99.90;;;;;;5053067;28;20478;-64
2021/07/09 08:16:34;;;;;;;13.97;12.80;;;21.30;99.90;;;;;;5052479;28;20972;-63
2021/07/09 08:19:11;;;;;;;13.50;12.40;;;21.30;99.90;;;;;;5052724;28;20514;-64
2021/07/09 08:21:38;;;;;;;13.40;12.40;;;21.40;99.90;;;;;;5052397;28;20991;-64
2021/07/09 08:24:05;;;;;;;12.73;11.83;;;21.40;99.90;;;;;;5052832;28;20478;-64
2021/07/09 08:26:32;;;;;;;13.43;12.53;;;21.50;99.90;;;;;;5052380;28;20471;-64
2021/07/09 08:28:59;;;;;;;13.27;12.27;;;21.50;99.90;;;;;;5062824;28;20485;-64
2021/07/09 08:31:26;;;;;;;13.57;12.40;;;21.50;99.90;;;;;;5072603;28;20999;-64
2021/07/09 08:33:53;;;;;;;11.03;10.23;;;21.50;99.90;;;;;;5067900;28;20470;-64
2021/07/09 08:36:23;;;;;;;13.73;12.53;;;21.60;99.90;;;;;;5072922;28;20956;-64
2021/07/09 08:38:50;;;;;;;10.33;9.53;;;21.60;99.90;;;;;;5072184;28;20484;-64
2021/07/09 08:41:17;;;;;;;10.27;9.57;;;21.60;99.90;;;;;;5072685;28;20463;-63
2021/07/09 08:43:44;;;;;;;12.13;11.23;;;21.70;99.90;;;;;;5072252;28;20473;-64
2021/07/09 08:46:11;;;;;;;10.90;10.20;;;21.70;99.90;;;;;;5072611;28;20474;-65
2021/07/09 08:48:40;;;;;;;10.30;9.50;;;21.70;99.90;;;;;;5072035;28;20482;-64
2021/07/09 08:51:07;;;;;;;11.50;10.70;;;21.70;99.90;;;;;;5072653;28;20466;-64
2021/07/09 08:53:36;;;;;;;11.70;10.80;;;21.80;99.90;;;;;;5072132;28;20879;-64
2021/07/09 08:56:03;;;;;;;11.40;10.47;;;21.80;99.90;;;;;;5072393;28;20474;-64
2021/07/09 08:58:30;;;;;;;10.93;10.23;;;21.80;99.90;;;;;;5072499;28;20474;-64
2021/07/09 09:00:57;;;;;;;12.20;11.23;;;21.90;99.90;;;;;;5071866;28;20462;-65
2021/07/09 09:03:26;;;;;;;11.33;10.50;;;21.90;99.90;;;;;;5072286;28;20519;-65
2021/07/09 09:05:59;;;;;;;10.60;9.07;;;21.90;99.90;;;;;;5071975;28;20470;-64
2021/07/09 09:08:26;;;;;;;11.57;10.70;;;21.90;99.90;;;;;;5072322;28;20474;-64
2021/07/09 09:10:55;;;;;;;12.20;11.20;;;22.00;99.90;;;;;;5072153;28;20462;-64
2021/07/09 09:13:25;;;;;;;12.13;11.10;;;21.90;99.90;;;;;;5076342;28;20485;-64
2021/07/09 09:16:01;;;;;;;11.37;10.57;;;22.00;99.90;;;;;;5075817;28;20466;-64
2021/07/09 09:18:31;;;;;;;11.23;10.33;;;22.00;99.90;;;;;;5076034;28;20866;-65
2021/07/09 09:21:00;;;;;;;12.43;11.50;;;22.00;99.90;;;;;;5075456;28;20512;-63
2021/07/09 09:23:29;;;;;;;12.37;11.40;;;22.00;99.90;;;;;;5076226;28;20520;-63
2021/07/09 09:25:58;;;;;;;9.93;9.17;;;22.00;99.90;;;;;;5075624;28;20465;-64
2021/07/09 09:28:25;;;;;;;10.33;9.50;;;22.10;99.90;;;;;;5075797;28;20482;-63
2021/07/09 09:30:54;;;;;;;10.70;9.90;;;22.00;99.90;;;;;;5075672;28;20496;-63
2021/07/09 09:33:21;;;;;;;10.47;9.47;;;22.10;99.90;;;;;;5071528;28;20975;-64
2021/07/09 09:35:53;;;;;;;10.40;9.53;;;22.10;99.90;;;;;;5075588;28;20466;-63
2021/07/09 09:38:26;;;;;;;10.20;9.40;;;22.10;99.90;;;;;;5075840;28;20680;-64
2021/07/09 09:40:53;;;;;;;9.67;8.97;;;22.10;99.90;;;;;;5073315;28;20482;-65
2021/07/09 09:43:24;;;;;;;10.67;9.77;;;22.10;99.90;;;;;;5055654;28;20513;-64
2021/07/09 09:46:02;;;;;;;11.23;10.13;;;22.10;99.90;;;;;;5055518;28;20863;-64
2021/07/09 09:48:42;;;;;;;11.50;10.50;;;22.10;99.90;;;;;;5055645;28;20528;-64
2021/07/09 09:51:39;;;;;;;20.23;18.17;;;22.10;99.90;;;;;;5055472;28;21296;-63
2021/07/09 09:54:09;;;;;;;15.13;13.57;;;22.10;99.90;;;;;;5013699;28;20520;-64
2021/07/09 09:56:41;;;;;;;14.73;13.50;;;22.20;99.90;;;;;;5046556;28;20474;-64
2021/07/09 09:59:20;;;;;;;10.37;9.50;;;22.20;99.90;;;;;;5054926;28;21014;-64
2021/07/09 10:01:50;;;;;;;11.57;10.63;;;22.20;99.90;;;;;;5054962;28;20827;-64
2021/07/09 10:04:17;;;;;;;17.33;15.67;;;22.30;99.90;;;;;;5055365;28;20478;-64
2021/07/09 10:06:44;;;;;;;11.00;10.00;;;22.30;99.90;;;;;;5055318;28;20471;-62
2021/07/09 10:09:12;;;;;;;10.93;9.67;;;22.40;99.90;;;;;;5054836;28;20460;-63
2021/07/09 10:11:40;;;;;;;14.90;13.30;;;22.40;99.90;;;;;;5055426;28;20817;-63
2021/07/09 10:14:10;;;;;;;10.03;9.40;;;22.40;99.90;;;;;;5054644;28;20547;-63
2021/07/09 10:16:39;;;;;;;15.43;14.13;;;22.50;99.90;;;;;;5055100;28;20482;-64
2021/07/09 10:19:09;;;;;;;10.10;9.30;;;22.40;99.90;;;;;;5054605;28;20980;-63
2021/07/09 10:21:36;;;;;;;10.50;9.43;;;22.50;99.90;;;;;;5055050;28;20517;-63
2021/07/09 10:24:03;;;;;;;11.13;10.23;;;22.50;99.90;;;;;;5053193;28;20463;-63
2021/07/09 10:26:30;;;;;;;11.40;10.50;;;22.50;99.90;;;;;;5055113;28;20467;-64
2021/07/09 10:29:10;;;;;;;10.10;9.37;;;22.50;99.90;;;;;;5064403;28;20952;-63
2021/07/09 10:31:40;;;;;;;11.00;10.20;;;22.40;99.90;;;;;;5074919;28;20470;-63
2021/07/09 10:34:29;;;;;;;10.93;10.10;;;22.50;99.90;;;;;;5070351;28;20815;-64
2021/07/09 10:36:59;;;;;;;9.90;9.20;;;22.40;99.90;;;;;;5070285;28;20956;-64
2021/07/09 10:39:43;;;;;;;10.50;9.70;;;22.40;99.90;;;;;;5074803;28;20462;-64
2021/07/09 10:42:38;;;;;;;13.53;12.37;;;22.40;99.90;;;;;;5074456;28;20458;-64
2021/07/09 10:45:11;;;;;;;10.73;9.83;;;22.40;99.90;;;;;;5074278;28;20470;-64
2021/07/09 10:47:43;;;;;;;11.20;10.30;;;22.40;99.90;;;;;;5074286;28;20478;-64
2021/07/09 10:50:11;;;;;;;10.97;10.17;;;22.40;99.90;;;;;;5074009;28;20461;-64
2021/07/09 10:52:47;;;;;;;10.80;10.00;;;22.40;99.90;;;;;;5074436;28;20473;-64
2021/07/09 10:55:51;;;;;;;10.63;9.83;;;22.40;99.90;;;;;;5074087;28;20462;-64
2021/07/09 10:58:19;;;;;;;10.77;9.93;;;22.40;99.90;;;;;;5073875;28;21274;-64
2021/07/09 11:00:48;;;;;;;10.87;9.97;;;22.30;99.90;;;;;;5074290;28;20531;-64
2021/07/09 11:03:26;;;;;;;9.97;9.30;;;22.30;99.90;;;;;;5073604;28;20455;-64
2021/07/09 11:06:04;;;;;;;12.23;11.23;;;22.30;99.90;;;;;;5074114;28;20462;-64
2021/07/09 11:08:53;;;;;;;12.57;11.53;;;22.40;99.90;;;;;;5074281;28;20474;-64
2021/07/09 11:11:32;;;;;;;12.07;10.87;;;22.40;99.90;;;;;;5073899;28;20464;-63
2021/07/09 11:14:01;;;;;;;12.97;11.77;;;22.30;99.90;;;;;;5073875;28;20819;-63
2021/07/09 11:16:31;;;;;;;12.53;11.40;;;22.20;99.90;;;;;;5073621;28;20462;-63
2021/07/09 11:19:08;;;;;;;12.43;11.17;;;22.10;99.90;;;;;;5073657;28;20530;-64
2021/07/09 11:22:01;;;;;;;12.27;11.07;;;22.10;99.90;;;;;;5073576;28;20540;-64
2021/07/09 11:24:30;;;;;;;11.70;10.70;;;22.10;99.90;;;;;;5073329;28;20497;-63
2021/07/09 11:26:59;;;;;;;14.33;12.93;;;22.10;99.90;;;;;;5073587;28;20473;-64
2021/07/09 11:29:32;;;;;;;13.03;11.93;;;22.10;99.90;;;;;;5073276;28;20510;-64
2021/07/09 11:32:01;;;;;;;14.63;12.67;;;22.00;99.90;;;;;;5072161;28;20466;-64
2021/07/09 11:34:30;;;;;;;14.00;12.70;;;22.00;99.90;;;;;;5070634;28;20949;-65
2021/07/09 11:36:59;;;;;;;14.27;13.10;;;22.00;99.90;;;;;;5073622;28;20463;-64
2021/07/09 11:39:28;;;;;;;11.83;10.63;;;21.90;99.90;;;;;;5072782;28;20477;-64
2021/07/09 11:42:01;;;;;;;14.53;13.20;;;21.90;99.90;;;;;;5073383;28;20524;-64
2021/07/09 11:44:30;;;;;;;15.73;14.20;;;21.90;99.90;;;;;;5072939;28;20463;-64
2021/07/09 11:47:00;;;;;;;12.17;11.17;;;21.90;99.90;;;;;;5073366;28;20477;-64
2021/07/09 11:49:30;;;;;;;15.50;14.07;;;21.90;99.90;;;;;;5072844;28;20474;-64
2021/07/09 11:51:59;;;;;;;13.80;12.70;;;21.90;99.90;;;;;;5073250;28;20462;-64
2021/07/09 11:54:30;;;;;;;17.73;16.07;;;21.90;99.90;;;;;;5072858;28;20470;-64
2021/07/09 11:57:00;;;;;;;17.27;15.70;;;21.90;99.90;;;;;;5073393;28;20809;-64
2021/07/09 11:59:29;;;;;;;13.50;12.13;;;21.90;99.90;;;;;;5072579;28;20956;-64
2021/07/09 12:02:11;;;;;;;13.17;12.07;;;21.90;99.90;;;;;;5073384;28;20458;-64
2021/07/09 12:04:45;;;;;;;15.87;14.47;;;21.90;99.90;;;;;;5072673;28;20530;-65
2021/07/09 12:07:35;;;;;;;16.17;14.70;;;22.00;99.90;;;;;;5072836;28;20473;-64
2021/07/09 12:10:07;;;;;;;15.70;14.07;;;22.00;99.90;;;;;;5072945;28;20468;-64
2021/07/09 12:12:39;;;;;;;16.57;14.80;;;22.00;99.90;;;;;;5072933;28;20459;-62
2021/07/09 12:15:12;;;;;;;14.27;12.97;;;22.00;99.90;;;;;;5072307;28;20465;-63
2021/07/09 12:17:41;;;;;;;15.17;13.67;;;22.10;99.90;;;;;;5072789;28;20466;-64
2021/07/09 12:20:14;;;;;;;13.67;12.57;;;22.10;99.90;;;;;;5072101;28;20478;-64
2021/07/09 12:22:43;;;;;;;15.87;13.33;;;22.10;99.90;;;;;;5072900;28;20466;-64
2021/07/09 12:25:14;;;;;;;12.37;11.37;;;22.10;99.90;;;;;;5072344;28;20462;-64
2021/07/09 12:27:43;;;;;;;11.83;10.73;;;22.10;99.90;;;;;;5072722;28;20477;-64
2021/07/09 12:30:13;;;;;;;11.23;10.23;;;22.20;99.90;;;;;;5052255;28;20467;-63
2021/07/09 12:32:49;;;;;;;13.20;12.10;;;22.20;99.90;;;;;;5055387;28;20462;-64
2021/07/09 12:35:18;;;;;;;11.53;10.53;;;22.20;99.90;;;;;;5072240;28;20469;-63
2021/07/09 12:38:00;;;;;;;12.90;11.80;;;22.20;99.90;;;;;;5072557;28;20481;-65
2021/07/09 12:40:38;;;;;;;11.43;10.43;;;22.20;99.90;;;;;;5072537;28;21464;-64
2021/07/09 12:43:19;;;;;;;12.10;10.90;;;22.20;99.90;;;;;;5072020;28;20471;-64
2021/07/09 12:45:55;;;;;;;12.77;11.57;;;22.20;99.90;;;;;;5071808;28;20458;-64
2021/07/09 12:48:30;;;;;;;11.87;10.87;;;22.30;99.90;;;;;;5071897;28;20466;-64